sensor_id;sensor_type;location;lat;lon;timestamp;pressure;altitude;pressure_sealevel;temperature;humidity
6899;BME280;3488;42.616;23.350;2023-08-06T00:01:36;63950.31;;;18.83;100.00
6899;BME280;3488;42.616;23.350;2023-08-06T00:04:03;63945.09;;;18.78;100.00
6899;BME280;3488;42.616;23.350;2023-08-06T00:06:30;63950.84;;;18.84;100.00
6899;BME280;3488;42.616;23.350;2023-08-06T00:08:57;63958.16;;;18.93;100.00
6899;BME280;3488;42.616;23.350;2023-08-06T00:11:24;63957.59;;;18.90;100.00
6899;BME280;3488;42.616;23.350;2023-08-06T00:13:51;63953.00;;;18.93;100.00
6899;BME280;3488;42.616;23.350;2023-08-06T00:16:19;63941.97;;;18.75;100.00
6899;BME280;3488;42.616;23.350;2023-08-06T00:18:46;63944.56;;;18.78;100.00
6899;BME280;3488;42.616;23.350;2023-08-06T00:21:13;63948.25;;;18.84;100.00
6899;BME280;3488;42.616;23.350;2023-08-06T00:23:40;63946.16;;;18.82;100.00
6899;BME280;3488;42.616;23.350;2023-08-06T00:26:07;63958.66;;;18.91;100.00
6899;BME280;3488;42.616;23.350;2023-08-06T00:28:35;63959.72;;;18.95;100.00
6899;BME280;3488;42.616;23.350;2023-08-06T00:31:02;63973.75;;;19.03;100.00
6899;BME280;3488;42.616;23.350;2023-08-06T00:33:30;63976.88;;;19.09;100.00
6899;BME280;3488;42.616;23.350;2023-08-06T00:35:57;63959.69;;;18.92;100.00
6899;BME280;3488;42.616;23.350;2023-08-06T00:38:24;63956.56;;;18.89;100.00
6899;BME280;3488;42.616;23.350;2023-08-06T00:40:51;63960.75;;;18.96;100.00
6899;BME280;3488;42.616;23.350;2023-08-06T00:43:18;63963.88;;;18.96;100.00
6899;BME280;3488;42.616;23.350;2023-08-06T00:45:45;63960.75;;;18.96;100.00
6899;BME280;3488;42.616;23.350;2023-08-06T00:48:13;63953.47;;;18.89;100.00
6899;BME280;3488;42.616;23.350;2023-08-06T00:50:43;63956.03;;;18.89;100.00
6899;BME280;3488;42.616;23.350;2023-08-06T00:53:10;63951.84;;;18.82;100.00
6899;BME280;3488;42.616;23.350;2023-08-06T00:55:38;63944.06;;;18.80;100.00
6899;BME280;3488;42.616;23.350;2023-08-06T00:58:06;63937.81;;;18.71;100.00
6899;BME280;3488;42.616;23.350;2023-08-06T01:00:33;63926.88;;;18.63;100.00
6899;BME280;3488;42.616;23.350;2023-08-06T01:03:00;63929.47;;;18.63;100.00
6899;BME280;3488;42.616;23.350;2023-08-06T01:05:27;63911.78;;;18.49;100.00
6899;BME280;3488;42.616;23.350;2023-08-06T01:08:08;63908.63;;;18.43;100.00
6899;BME280;3488;42.616;23.350;2023-08-06T01:10:49;63909.66;;;18.44;100.00
6899;BME280;3488;42.616;23.350;2023-08-06T01:13:23;63916.94;;;18.49;100.00
6899;BME280;3488;42.616;23.350;2023-08-06T01:15:54;63930.50;;;18.62;100.00
6899;BME280;3488;42.616;23.350;2023-08-06T01:18:22;63937.78;;;18.69;100.00
6899;BME280;3488;42.616;23.350;2023-08-06T01:20:51;63943.03;;;18.79;100.00
6899;BME280;3488;42.616;23.350;2023-08-06T01:23:18;63934.13;;;18.65;100.00
6899;BME280;3488;42.616;23.350;2023-08-06T01:25:50;63949.81;;;18.85;100.00
6899;BME280;3488;42.616;23.350;2023-08-06T01:28:27;63961.22;;;18.89;100.00
6899;BME280;3488;42.616;23.350;2023-08-06T01:30:59;63961.25;;;18.94;100.00
6899;BME280;3488;42.616;23.350;2023-08-06T01:33:29;63952.97;;;18.91;100.00
6899;BME280;3488;42.616;23.350;2023-08-06T01:36:00;63960.28;;;19.00;100.00
6899;BME280;3488;42.616;23.350;2023-08-06T01:38:27;63941.47;;;18.77;100.00
6899;BME280;3488;42.616;23.350;2023-08-06T01:40:54;63939.34;;;18.70;100.00
6899;BME280;3488;42.616;23.350;2023-08-06T01:43:21;63935.22;;;18.71;100.00
6899;BME280;3488;42.616;23.350;2023-08-06T01:45:48;63939.94;;;18.76;100.00
6899;BME280;3488;42.616;23.350;2023-08-06T01:48:15;63939.94;;;18.76;100.00
6899;BME280;3488;42.616;23.350;2023-08-06T01:50:42;63949.28;;;18.85;100.00
6899;BME280;3488;42.616;23.350;2023-08-06T01:53:10;63968.50;;;18.96;100.00
6899;BME280;3488;42.616;23.350;2023-08-06T01:55:37;63964.38;;;18.97;100.00
6899;BME280;3488;42.616;23.350;2023-08-06T01:58:04;63976.88;;;19.06;100.00
6899;BME280;3488;42.616;23.350;2023-08-06T02:00:31;63952.38;;;18.83;100.00
6899;BME280;3488;42.616;23.350;2023-08-06T02:02:58;63953.44;;;18.86;100.00
6899;BME280;3488;42.616;23.350;2023-08-06T02:05:25;63951.88;;;18.85;100.00
6899;BME280;3488;42.616;23.350;2023-08-06T02:07:51;63921.16;;;18.58;100.00
6899;BME280;3488;42.616;23.350;2023-08-06T02:10:19;63904.94;;;18.37;100.00
6899;BME280;3488;42.616;23.350;2023-08-06T02:12:46;63907.53;;;18.39;100.00
6899;BME280;3488;42.616;23.350;2023-08-06T02:15:13;63914.34;;;18.49;100.00
6899;BME280;3488;42.616;23.350;2023-08-06T02:17:40;63919.06;;;18.56;100.00
6899;BME280;3488;42.616;23.350;2023-08-06T02:20:08;63929.47;;;18.63;100.00
6899;BME280;3488;42.616;23.350;2023-08-06T02:22:35;63926.88;;;18.63;100.00
6899;BME280;3488;42.616;23.350;2023-08-06T02:25:02;63938.31;;;18.72;100.00
6899;BME280;3488;42.616;23.350;2023-08-06T02:27:30;63925.81;;;18.60;100.00
6899;BME280;3488;42.616;23.350;2023-08-06T02:29:57;63923.69;;;18.55;100.00
6899;BME280;3488;42.616;23.350;2023-08-06T02:32:24;63916.94;;;18.49;100.00
6899;BME280;3488;42.616;23.350;2023-08-06T02:34:51;63922.69;;;18.57;100.00
6899;BME280;3488;42.616;23.350;2023-08-06T02:37:18;63922.69;;;18.57;100.00
6899;BME280;3488;42.616;23.350;2023-08-06T02:39:44;63925.28;;;18.59;100.00
6899;BME280;3488;42.616;23.350;2023-08-06T02:42:11;63926.84;;;18.61;100.00
6899;BME280;3488;42.616;23.350;2023-08-06T02:44:40;63923.22;;;18.57;100.00
6899;BME280;3488;42.616;23.350;2023-08-06T02:47:06;63923.22;;;18.57;100.00
6899;BME280;3488;42.616;23.350;2023-08-06T02:49:33;63916.41;;;18.48;100.00
6899;BME280;3488;42.616;23.350;2023-08-06T02:52:00;63899.22;;;18.34;100.00
6899;BME280;3488;42.616;23.350;2023-08-06T02:54:27;63890.97;;;18.33;100.00
6899;BME280;3488;42.616;23.350;2023-08-06T02:56:54;63892.47;;;18.30;100.00
6899;BME280;3488;42.616;23.350;2023-08-06T02:59:21;63901.81;;;18.36;100.00
6899;BME280;3488;42.616;23.350;2023-08-06T03:01:49;63915.94;;;18.53;100.00
6899;BME280;3488;42.616;23.350;2023-08-06T03:04:16;63920.63;;;18.55;100.00
6899;BME280;3488;42.616;23.350;2023-08-06T03:06:43;63892.97;;;18.28;100.00
6899;BME280;3488;42.616;23.350;2023-08-06T03:09:10;63895.59;;;18.33;100.00
6899;BME280;3488;42.616;23.350;2023-08-06T03:11:37;63914.41;;;18.54;100.00
6899;BME280;3488;42.616;23.350;2023-08-06T03:14:04;63915.94;;;18.53;100.00
6899;BME280;3488;42.616;23.350;2023-08-06T03:16:31;63915.91;;;18.50;100.00
6899;BME280;3488;42.616;23.350;2023-08-06T03:18:59;63927.97;;;18.67;100.00
6899;BME280;3488;42.616;23.350;2023-08-06T03:21:26;63924.31;;;18.63;100.00
6899;BME280;3488;42.616;23.350;2023-08-06T03:23:53;63933.13;;;18.67;100.00
6899;BME280;3488;42.616;23.350;2023-08-06T03:26:21;63916.97;;;18.51;100.00
6899;BME280;3488;42.616;23.350;2023-08-06T03:28:47;63913.84;;;18.48;100.00
6899;BME280;3488;42.616;23.350;2023-08-06T03:31:15;63913.34;;;18.50;100.00
6899;BME280;3488;42.616;23.350;2023-08-06T03:33:41;63909.13;;;18.43;100.00
6899;BME280;3488;42.616;23.350;2023-08-06T03:36:10;63921.66;;;18.56;100.00
6899;BME280;3488;42.616;23.350;2023-08-06T03:38:37;63914.88;;;18.49;100.00
6899;BME280;3488;42.616;23.350;2023-08-06T03:41:04;63925.34;;;18.62;100.00
6899;BME280;3488;42.616;23.350;2023-08-06T03:43:30;63931.56;;;18.65;100.00
6899;BME280;3488;42.616;23.350;2023-08-06T03:45:57;63940.94;;;18.74;100.00
6899;BME280;3488;42.616;23.350;2023-08-06T03:48:24;63943.53;;;18.77;100.00
6899;BME280;3488;42.616;23.350;2023-08-06T03:50:51;63940.94;;;18.74;100.00
6899;BME280;3488;42.616;23.350;2023-08-06T03:53:19;63936.28;;;18.72;100.00
6899;BME280;3488;42.616;23.350;2023-08-06T03:55:46;63941.50;;;18.80;100.00
6899;BME280;3488;42.616;23.350;2023-08-06T03:58:13;63953.50;;;18.91;100.00
6899;BME280;3488;42.616;23.350;2023-08-06T04:00:40;63944.06;;;18.77;100.00
6899;BME280;3488;42.616;23.350;2023-08-06T04:03:07;63922.22;;;18.61;100.00
6899;BME280;3488;42.616;23.350;2023-08-06T04:05:34;63915.97;;;18.55;100.00
6899;BME280;3488;42.616;23.350;2023-08-06T04:08:01;63923.72;;;18.58;100.00
6899;BME280;3488;42.616;23.350;2023-08-06T04:10:29;63919.09;;;18.58;100.00
6899;BME280;3488;42.616;23.350;2023-08-06T04:12:56;63933.66;;;18.70;100.00
6899;BME280;3488;42.616;23.350;2023-08-06T04:15:23;63936.75;;;18.70;100.00
6899;BME280;3488;42.616;23.350;2023-08-06T04:17:50;63939.41;;;18.75;100.00
6899;BME280;3488;42.616;23.350;2023-08-06T04:20:17;63947.72;;;18.83;100.00
6899;BME280;3488;42.616;23.350;2023-08-06T04:22:43;63964.91;;;18.97;100.00
6899;BME280;3488;42.616;23.350;2023-08-06T04:25:10;63974.31;;;19.09;100.00
6899;BME280;3488;42.616;23.350;2023-08-06T04:27:39;63982.63;;;19.14;100.00
6899;BME280;3488;42.616;23.350;2023-08-06T04:30:07;63975.88;;;19.10;100.00
6899;BME280;3488;42.616;23.350;2023-08-06T04:32:34;63983.72;;;19.20;100.00
6899;BME280;3488;42.616;23.350;2023-08-06T04:35:01;63985.28;;;19.22;100.00
6899;BME280;3488;42.616;23.350;2023-08-06T04:37:28;63987.34;;;19.21;100.00
6899;BME280;3488;42.616;23.350;2023-08-06T04:39:55;63987.38;;;19.24;100.00
6899;BME280;3488;42.616;23.350;2023-08-06T04:42:22;63986.81;;;19.18;100.00
6899;BME280;3488;42.616;23.350;2023-08-06T04:44:53;63979.53;;;19.14;100.00
6899;BME280;3488;42.616;23.350;2023-08-06T04:47:21;63980.09;;;19.17;100.00
6899;BME280;3488;42.616;23.350;2023-08-06T04:49:48;63989.44;;;19.23;100.00
6899;BME280;3488;42.616;23.350;2023-08-06T04:52:15;63986.31;;;19.23;100.00
6899;BME280;3488;42.616;23.350;2023-08-06T04:54:43;63987.38;;;19.24;100.00
6899;BME280;3488;42.616;23.350;2023-08-06T04:57:10;63988.94;;;19.25;100.00
6899;BME280;3488;42.616;23.350;2023-08-06T04:59:37;63978.97;;;19.11;100.00
6899;BME280;3488;42.616;23.350;2023-08-06T05:02:05;63969.09;;;19.04;100.00
6899;BME280;3488;42.616;23.350;2023-08-06T05:04:32;63979.53;;;19.14;100.00
6899;BME280;3488;42.616;23.350;2023-08-06T05:06:59;63966.47;;;18.99;100.00
6899;BME280;3488;42.616;23.350;2023-08-06T05:09:26;63956.63;;;18.94;100.00
6899;BME280;3488;42.616;23.350;2023-08-06T05:11:53;63957.66;;;18.95;100.00
6899;BME280;3488;42.616;23.350;2023-08-06T05:14:20;63996.19;;;19.27;100.00
6899;BME280;3488;42.616;23.350;2023-08-06T05:16:47;63996.75;;;19.30;100.00
6899;BME280;3488;42.616;23.350;2023-08-06T05:19:15;64014.97;;;19.45;100.00
6899;BME280;3488;42.616;23.350;2023-08-06T05:21:43;64012.94;;;19.48;100.00
6899;BME280;3488;42.616;23.350;2023-08-06T05:24:09;64003.53;;;19.37;100.00
6899;BME280;3488;42.616;23.350;2023-08-06T05:26:37;63996.78;;;19.33;100.00
6899;BME280;3488;42.616;23.350;2023-08-06T05:29:04;63986.28;;;19.18;100.00
6899;BME280;3488;42.616;23.350;2023-08-06T05:31:31;63969.09;;;19.01;100.00
6899;BME280;3488;42.616;23.350;2023-08-06T05:33:58;63965.41;;;18.95;100.00
6899;BME280;3488;42.616;23.350;2023-08-06T05:36:26;63972.78;;;19.12;100.00
6899;BME280;3488;42.616;23.350;2023-08-06T05:38:53;63986.28;;;19.18;100.00
6899;BME280;3488;42.616;23.350;2023-08-06T05:41:20;64008.19;;;19.39;100.00
6899;BME280;3488;42.616;23.350;2023-08-06T05:43:47;64007.75;;;19.46;100.00
6899;BME280;3488;42.616;23.350;2023-08-06T05:46:13;64029.63;;;19.65;100.00
6899;BME280;3488;42.616;23.350;2023-08-06T05:48:40;64051.00;;;19.83;100.00
6899;BME280;3488;42.616;23.350;2023-08-06T05:51:07;64056.72;;;19.86;100.00
6899;BME280;3488;42.616;23.350;2023-08-06T05:53:36;64069.25;;;20.00;100.00
6899;BME280;3488;42.616;23.350;2023-08-06T05:56:04;64073.91;;;20.02;100.00
6899;BME280;3488;42.616;23.350;2023-08-06T05:58:31;64071.84;;;20.03;100.00
6899;BME280;3488;42.616;23.350;2023-08-06T06:00:58;64086.44;;;20.14;100.00
6899;BME280;3488;42.616;23.350;2023-08-06T06:03:25;64122.47;;;20.49;100.00
6899;BME280;3488;42.616;23.350;2023-08-06T06:05:52;64139.22;;;20.73;100.00
6899;BME280;3488;42.616;23.350;2023-08-06T06:08:19;64136.56;;;20.62;100.00
6899;BME280;3488;42.616;23.350;2023-08-06T06:10:47;64162.69;;;20.90;100.00
6899;BME280;3488;42.616;23.350;2023-08-06T06:13:14;64186.19;;;21.10;100.00
6899;BME280;3488;42.616;23.350;2023-08-06T06:15:41;64224.81;;;21.47;100.00
6899;BME280;3488;42.616;23.350;2023-08-06T06:18:09;64224.34;;;21.52;100.00
6899;BME280;3488;42.616;23.350;2023-08-06T06:20:36;64271.84;;;21.93;100.00
6899;BME280;3488;42.616;23.350;2023-08-06T06:23:02;64305.28;;;22.25;100.00
6899;BME280;3488;42.616;23.350;2023-08-06T06:25:29;64304.78;;;22.24;100.00
6899;BME280;3488;42.616;23.350;2023-08-06T06:27:58;64295.38;;;22.18;100.00
6899;BME280;3488;42.616;23.350;2023-08-06T06:30:25;64299.59;;;22.24;100.00
6899;BME280;3488;42.616;23.350;2023-08-06T06:32:52;64298.53;;;22.23;100.00
6899;BME280;3488;42.616;23.350;2023-08-06T06:35:18;64289.66;;;22.12;100.00
6899;BME280;3488;42.616;23.350;2023-08-06T06:37:45;64247.28;;;21.69;100.00
6899;BME280;3488;42.616;23.350;2023-08-06T06:40:12;64180.44;;;21.07;100.00
6899;BME280;3488;42.616;23.350;2023-08-06T06:42:39;64161.63;;;20.89;100.00
6899;BME280;3488;42.616;23.350;2023-08-06T06:45:09;64142.88;;;20.74;100.00
6899;BME280;3488;42.616;23.350;2023-08-06T06:47:36;64147.00;;;20.73;100.00
6899;BME280;3488;42.616;23.350;2023-08-06T06:50:04;64141.28;;;20.69;100.00
6899;BME280;3488;42.616;23.350;2023-08-06T06:52:31;64157.44;;;20.83;100.00
6899;BME280;3488;42.616;23.350;2023-08-06T06:54:58;64183.56;;;21.08;100.00
6899;BME280;3488;42.616;23.350;2023-08-06T06:57:25;64152.25;;;20.80;100.00
6899;BME280;3488;42.616;23.350;2023-08-06T06:59:51;64118.31;;;20.47;100.00
6899;BME280;3488;42.616;23.350;2023-08-06T07:02:20;64095.84;;;20.23;100.00
6899;BME280;3488;42.616;23.350;2023-08-06T07:04:47;64061.44;;;19.93;100.00
6899;BME280;3488;42.616;23.350;2023-08-06T07:07:14;64055.69;;;19.87;100.00
6899;BME280;3488;42.616;23.350;2023-08-06T07:09:41;64072.88;;;20.01;100.00
6899;BME280;3488;42.616;23.350;2023-08-06T07:12:08;64060.91;;;19.92;100.00
6899;BME280;3488;42.616;23.350;2023-08-06T07:14:36;64071.84;;;20.03;100.00
6899;BME280;3488;42.616;23.350;2023-08-06T07:17:03;64102.63;;;20.30;100.00
6899;BME280;3488;42.616;23.350;2023-08-06T07:19:32;64145.50;;;20.79;100.00
6899;BME280;3488;42.616;23.350;2023-08-06T07:21:58;64208.13;;;21.34;100.00
6899;BME280;3488;42.616;23.350;2023-08-06T07:24:25;64224.84;;;21.50;100.00
6899;BME280;3488;42.616;23.350;2023-08-06T07:26:53;64207.59;;;21.33;100.00
6899;BME280;3488;42.616;23.350;2023-08-06T07:29:20;64190.34;;;21.14;100.00
6899;BME280;3488;42.616;23.350;2023-08-06T07:31:48;64181.00;;;21.10;100.00
6899;BME280;3488;42.616;23.350;2023-08-06T07:34:16;64212.84;;;21.41;100.00
6899;BME280;3488;42.616;23.350;2023-08-06T07:36:45;64232.66;;;21.57;100.00
6899;BME280;3488;42.616;23.350;2023-08-06T07:39:12;64265.09;;;21.89;100.00
6899;BME280;3488;42.616;23.350;2023-08-06T07:41:39;64283.38;;;22.04;99.40
6899;BME280;3488;42.616;23.350;2023-08-06T07:44:07;64293.31;;;22.16;88.92
6899;BME280;3488;42.616;23.350;2023-08-06T07:46:34;64304.28;;;22.26;87.57
6899;BME280;3488;42.616;23.350;2023-08-06T07:49:00;64317.84;;;22.37;87.50
6899;BME280;3488;42.616;23.350;2023-08-06T07:51:28;64287.56;;;22.10;84.62
6899;BME280;3488;42.616;23.350;2023-08-06T07:53:56;64272.94;;;21.96;87.56
6899;BME280;3488;42.616;23.350;2023-08-06T07:56:23;64279.72;;;22.00;87.14
6899;BME280;3488;42.616;23.350;2023-08-06T07:58:50;64271.34;;;21.95;82.73
6899;BME280;3488;42.616;23.350;2023-08-06T08:01:17;64256.22;;;21.83;86.58
6899;BME280;3488;42.616;23.350;2023-08-06T08:03:44;64238.97;;;21.66;87.91
6899;BME280;3488;42.616;23.350;2023-08-06T08:06:11;64249.41;;;21.76;81.06
6899;BME280;3488;42.616;23.350;2023-08-06T08:08:38;64284.41;;;22.05;82.39
6899;BME280;3488;42.616;23.350;2023-08-06T08:11:07;64308.44;;;22.30;79.13
6899;BME280;3488;42.616;23.350;2023-08-06T08:13:34;64309.50;;;22.31;76.71
6899;BME280;3488;42.616;23.350;2023-08-06T08:16:01;64305.31;;;22.27;74.42
6899;BME280;3488;42.616;23.350;2023-08-06T08:18:28;64314.72;;;22.34;71.77
6899;BME280;3488;42.616;23.350;2023-08-06T08:20:57;64303.72;;;22.23;76.30
6899;BME280;3488;42.616;23.350;2023-08-06T08:23:24;64304.22;;;22.21;78.64
6899;BME280;3488;42.616;23.350;2023-08-06T08:25:51;64277.63;;;21.98;77.18
6899;BME280;3488;42.616;23.350;2023-08-06T08:28:19;64299.56;;;22.19;77.53
6899;BME280;3488;42.616;23.350;2023-08-06T08:30:46;64317.88;;;22.42;72.03
6899;BME280;3488;42.616;23.350;2023-08-06T08:33:14;64321.53;;;22.45;75.14
6899;BME280;3488;42.616;23.350;2023-08-06T08:35:41;64334.56;;;22.53;75.31
6899;BME280;3488;42.616;23.350;2023-08-06T08:38:09;64329.34;;;22.48;71.47
6899;BME280;3488;42.616;23.350;2023-08-06T08:40:39;64331.41;;;22.47;69.19
6899;BME280;3488;42.616;23.350;2023-08-06T08:43:09;64323.09;;;22.44;74.08
6899;BME280;3488;42.616;23.350;2023-08-06T08:45:39;64370.13;;;22.87;73.59
6899;BME280;3488;42.616;23.350;2023-08-06T08:48:07;64374.34;;;22.91;69.72
6899;BME280;3488;42.616;23.350;2023-08-06T08:50:35;64365.97;;;22.83;63.51
6899;BME280;3488;42.616;23.350;2023-08-06T08:53:02;64355.00;;;22.75;69.87
6899;BME280;3488;42.616;23.350;2023-08-06T08:55:29;64379.59;;;22.99;65.86
6899;BME280;3488;42.616;23.350;2023-08-06T08:57:56;64384.28;;;23.03;67.72
6899;BME280;3488;42.616;23.350;2023-08-06T09:00:24;64409.94;;;23.28;65.02
6899;BME280;3488;42.616;23.350;2023-08-06T09:02:53;64388.47;;;23.07;69.82
6899;BME280;3488;42.616;23.350;2023-08-06T09:05:22;64374.84;;;22.92;65.12
6899;BME280;3488;42.616;23.350;2023-08-06T09:07:52;64388.97;;;23.05;62.33
6899;BME280;3488;42.616;23.350;2023-08-06T09:10:21;64413.59;;;23.34;58.65
6899;BME280;3488;42.616;23.350;2023-08-06T09:12:51;64416.72;;;23.37;62.75
6899;BME280;3488;42.616;23.350;2023-08-06T09:15:20;64421.94;;;23.37;62.26
6899;BME280;3488;42.616;23.350;2023-08-06T09:17:51;64426.63;;;23.39;60.94
6899;BME280;3488;42.616;23.350;2023-08-06T09:20:19;64421.44;;;23.36;62.85
6899;BME280;3488;42.616;23.350;2023-08-06T09:22:46;64437.63;;;23.52;60.84
6899;BME280;3488;42.616;23.350;2023-08-06T09:25:21;64424.03;;;23.39;60.75
6899;BME280;3488;42.616;23.350;2023-08-06T09:27:49;64427.72;;;23.45;62.95
6899;BME280;3488;42.616;23.350;2023-08-06T09:30:29;64466.41;;;23.82;56.44
6899;BME280;3488;42.616;23.350;2023-08-06T09:32:58;64490.50;;;24.02;57.67
6899;BME280;3488;42.616;23.350;2023-08-06T09:35:28;64500.44;;;24.12;54.76
6899;BME280;3488;42.616;23.350;2023-08-06T09:37:55;64507.78;;;24.19;53.39
6899;BME280;3488;42.616;23.350;2023-08-06T09:40:27;64490.00;;;24.02;55.88
6899;BME280;3488;42.616;23.350;2023-08-06T09:42:54;64516.69;;;24.28;54.46
6899;BME280;3488;42.616;23.350;2023-08-06T09:45:21;64543.91;;;24.54;53.84
6899;BME280;3488;42.616;23.350;2023-08-06T09:47:49;64525.56;;;24.36;54.97
6899;BME280;3488;42.616;23.350;2023-08-06T09:50:18;64549.66;;;24.59;55.47
6899;BME280;3488;42.616;23.350;2023-08-06T09:52:46;64503.59;;;24.18;55.07
6899;BME280;3488;42.616;23.350;2023-08-06T09:55:14;64482.63;;;23.95;57.25
6899;BME280;3488;42.616;23.350;2023-08-06T09:57:42;64525.06;;;24.38;55.47
6899;BME280;3488;42.616;23.350;2023-08-06T10:00:10;64500.97;;;24.15;55.55
6899;BME280;3488;42.616;23.350;2023-08-06T10:02:39;64546.00;;;24.58;53.53
6899;BME280;3488;42.616;23.350;2023-08-06T10:05:07;64588.94;;;24.94;53.48
6899;BME280;3488;42.616;23.350;2023-08-06T10:07:37;64572.19;;;24.83;54.21
6899;BME280;3488;42.616;23.350;2023-08-06T10:10:06;64596.78;;;24.99;52.76
6899;BME280;3488;42.616;23.350;2023-08-06T10:12:35;64629.28;;;25.33;51.49
6899;BME280;3488;42.616;23.350;2023-08-06T10:15:09;64659.16;;;25.64;49.62
6899;BME280;3488;42.616;23.350;2023-08-06T10:17:38;64683.78;;;25.90;50.05
6899;BME280;3488;42.616;23.350;2023-08-06T10:20:09;64701.63;;;26.05;49.47
6899;BME280;3488;42.616;23.350;2023-08-06T10:22:42;64683.25;;;25.87;48.77
6899;BME280;3488;42.616;23.350;2023-08-06T10:25:10;64660.75;;;25.68;49.13
6899;BME280;3488;42.616;23.350;2023-08-06T10:27:40;64630.38;;;25.42;49.52
6899;BME280;3488;42.616;23.350;2023-08-06T10:30:24;64621.44;;;25.33;49.66
6899;BME280;3488;42.616;23.350;2023-08-06T10:32:52;64602.06;;;25.12;49.76
6899;BME280;3488;42.616;23.350;2023-08-06T10:35:30;64608.84;;;25.19;51.28
6899;BME280;3488;42.616;23.350;2023-08-06T10:38:05;64604.16;;;25.14;50.00
6899;BME280;3488;42.616;23.350;2023-08-06T10:40:36;64590.53;;;24.98;51.86
6899;BME280;3488;42.616;23.350;2023-08-06T10:43:04;64588.41;;;24.96;51.34
6899;BME280;3488;42.616;23.350;2023-08-06T10:45:34;64580.59;;;24.94;50.83
6899;BME280;3488;42.616;23.350;2023-08-06T10:48:02;64566.94;;;24.71;52.63
6899;BME280;3488;42.616;23.350;2023-08-06T10:50:29;64581.09;;;24.89;53.13
6899;BME280;3488;42.616;23.350;2023-08-06T10:52:57;64584.25;;;24.95;52.43
6899;BME280;3488;42.616;23.350;2023-08-06T10:55:28;64536.06;;;24.49;54.68
6899;BME280;3488;42.616;23.350;2023-08-06T10:57:56;64547.03;;;24.59;53.10
6899;BME280;3488;42.616;23.350;2023-08-06T11:00:24;64554.94;;;24.72;52.81
6899;BME280;3488;42.616;23.350;2023-08-06T11:02:52;64557.53;;;24.69;54.34
6899;BME280;3488;42.616;23.350;2023-08-06T11:05:20;64572.72;;;24.84;54.57
6899;BME280;3488;42.616;23.350;2023-08-06T11:07:47;64589.47;;;24.97;54.81
6899;BME280;3488;42.616;23.350;2023-08-06T11:10:16;64585.78;;;24.94;54.16
6899;BME280;3488;42.616;23.350;2023-08-06T11:12:45;64623.50;;;25.28;53.87
6899;BME280;3488;42.616;23.350;2023-08-06T11:15:12;64620.91;;;25.30;52.65
6899;BME280;3488;42.616;23.350;2023-08-06T11:17:40;64535.53;;;24.48;55.62
6899;BME280;3488;42.616;23.350;2023-08-06T11:20:08;64550.69;;;24.60;54.51
6899;BME280;3488;42.616;23.350;2023-08-06T11:22:37;64558.53;;;24.68;54.49
6899;BME280;3488;42.616;23.350;2023-08-06T11:25:06;64552.28;;;24.62;54.06
6899;BME280;3488;42.616;23.350;2023-08-06T11:27:33;64554.94;;;24.69;54.51
6899;BME280;3488;42.616;23.350;2023-08-06T11:30:01;64541.28;;;24.51;53.63
6899;BME280;3488;42.616;23.350;2023-08-06T11:32:29;64524.00;;;24.35;50.45
6899;BME280;3488;42.616;23.350;2023-08-06T11:34:56;64506.72;;;24.16;51.87
6899;BME280;3488;42.616;23.350;2023-08-06T11:37:23;64426.69;;;23.46;55.24
6899;BME280;3488;42.616;23.350;2023-08-06T11:39:51;64401.03;;;23.19;58.51
6899;BME280;3488;42.616;23.350;2023-08-06T11:42:17;64417.75;;;23.33;60.46
6899;BME280;3488;42.616;23.350;2023-08-06T11:44:44;64424.09;;;23.46;60.42
6899;BME280;3488;42.616;23.350;2023-08-06T11:47:17;64417.25;;;23.37;62.21
6899;BME280;3488;42.616;23.350;2023-08-06T11:49:45;64379.06;;;22.98;67.19
6899;BME280;3488;42.616;23.350;2023-08-06T11:52:17;64367.53;;;22.84;69.34
6899;BME280;3488;42.616;23.350;2023-08-06T11:54:46;64364.91;;;22.82;74.36
6899;BME280;3488;42.616;23.350;2023-08-06T11:57:15;64342.94;;;22.61;80.61
6899;BME280;3488;42.616;23.350;2023-08-06T11:59:42;64305.34;;;22.30;86.34
6899;BME280;3488;42.616;23.350;2023-08-06T12:02:09;64296.94;;;22.17;92.24
6899;BME280;3488;42.616;23.350;2023-08-06T12:05:03;64311.59;;;22.33;91.41
6899;BME280;3488;42.616;23.350;2023-08-06T12:07:32;64334.53;;;22.50;90.46
6899;BME280;3488;42.616;23.350;2023-08-06T12:09:59;64357.06;;;22.74;90.23
6899;BME280;3488;42.616;23.350;2023-08-06T12:12:27;64376.44;;;22.93;86.00
6899;BME280;3488;42.616;23.350;2023-08-06T12:14:54;64411.50;;;23.29;70.77
6899;BME280;3488;42.616;23.350;2023-08-06T12:17:22;64432.41;;;23.49;68.80
6899;BME280;3488;42.616;23.350;2023-08-06T12:19:50;64408.34;;;23.26;62.32
6899;BME280;3488;42.616;23.350;2023-08-06T12:22:18;64409.94;;;23.28;63.09
6899;BME280;3488;42.616;23.350;2023-08-06T12:24:47;64455.97;;;23.72;62.97
6899;BME280;3488;42.616;23.350;2023-08-06T12:27:14;64484.72;;;23.94;59.76
6899;BME280;3488;42.616;23.350;2023-08-06T12:29:42;64491.56;;;24.04;62.70
6899;BME280;3488;42.616;23.350;2023-08-06T12:32:09;64525.03;;;24.36;60.24
6899;BME280;3488;42.616;23.350;2023-08-06T12:34:37;64556.00;;;24.73;58.21
6899;BME280;3488;42.616;23.350;2023-08-06T12:37:05;64563.84;;;24.78;57.61
6899;BME280;3488;42.616;23.350;2023-08-06T12:39:33;64579.53;;;24.88;57.00
6899;BME280;3488;42.616;23.350;2023-08-06T12:42:01;64582.66;;;24.91;57.66
6899;BME280;3488;42.616;23.350;2023-08-06T12:44:28;64583.19;;;24.91;57.50
6899;BME280;3488;42.616;23.350;2023-08-06T12:46:55;64542.84;;;24.53;59.33
6899;BME280;3488;42.616;23.350;2023-08-06T12:49:22;64510.41;;;24.24;61.70
6899;BME280;3488;42.616;23.350;2023-08-06T12:51:50;64547.03;;;24.59;58.41
6899;BME280;3488;42.616;23.350;2023-08-06T12:54:17;64574.81;;;24.86;58.55
6899;BME280;3488;42.616;23.350;2023-08-06T12:56:46;64614.59;;;25.22;58.54
6899;BME280;3488;42.616;23.350;2023-08-06T12:59:14;64626.19;;;25.40;56.83
6899;BME280;3488;42.616;23.350;2023-08-06T13:01:42;64639.25;;;25.45;55.40
6899;BME280;3488;42.616;23.350;2023-08-06T13:04:09;64660.22;;;25.65;53.93
6899;BME280;3488;42.616;23.350;2023-08-06T13:06:36;64691.13;;;25.95;55.02
6899;BME280;3488;42.616;23.350;2023-08-06T13:09:05;64735.72;;;26.43;53.55